sensor_id;sensor_type;location;lat;lon;timestamp;pressure;altitude;pressure_sealevel;temperature;humidity
2339;BME280;1180;51.438;6.978;2022-10-16T00:01:42;99798.78;;;17.61;96.40
2339;BME280;1180;51.438;6.978;2022-10-16T00:04:08;99801.13;;;17.55;96.06
2339;BME280;1180;51.438;6.978;2022-10-16T00:06:34;99814.41;;;17.52;96.11
2339;BME280;1180;51.438;6.978;2022-10-16T00:08:59;99824.78;;;17.52;96.11
2339;BME280;1180;51.438;6.978;2022-10-16T00:11:30;99817.66;;;17.54;96.17
2339;BME280;1180;51.438;6.978;2022-10-16T00:14:00;99815.25;;;17.52;95.95
2339;BME280;1180;51.438;6.978;2022-10-16T00:16:26;99817.41;;;17.57;96.02
2339;BME280;1180;51.438;6.978;2022-10-16T00:18:52;99819.31;;;17.55;95.94
2339;BME280;1180;51.438;6.978;2022-10-16T00:21:20;99813.44;;;17.53;96.02
2339;BME280;1180;51.438;6.978;2022-10-16T00:23:46;99811.69;;;17.53;96.23
2339;BME280;1180;51.438;6.978;2022-10-16T00:26:14;99813.75;;;17.50;95.76
2339;BME280;1180;51.438;6.978;2022-10-16T00:28:40;99817.00;;;17.52;95.89
2339;BME280;1180;51.438;6.978;2022-10-16T00:31:08;99823.16;;;17.51;96.24
2339;BME280;1180;51.438;6.978;2022-10-16T00:33:34;99819.53;;;17.43;96.58
2339;BME280;1180;51.438;6.978;2022-10-16T00:36:01;99826.63;;;17.41;96.69
2339;BME280;1180;51.438;6.978;2022-10-16T00:38:26;99824.72;;;17.43;97.04
2339;BME280;1180;51.438;6.978;2022-10-16T00:40:52;99821.06;;;17.36;97.58
2339;BME280;1180;51.438;6.978;2022-10-16T00:46:01;99822.13;;;17.43;96.44
2339;BME280;1180;51.438;6.978;2022-10-16T00:48:27;99827.97;;;17.45;96.71
2339;BME280;1180;51.438;6.978;2022-10-16T00:50:52;99827.00;;;17.46;96.66
2339;BME280;1180;51.438;6.978;2022-10-16T00:53:19;99828.50;;;17.49;96.27
2339;BME280;1180;51.438;6.978;2022-10-16T00:55:44;99829.75;;;17.45;96.20
2339;BME280;1180;51.438;6.978;2022-10-16T00:58:11;99829.47;;;17.48;96.24
2339;BME280;1180;51.438;6.978;2022-10-16T01:00:36;99826.72;;;17.50;95.94
2339;BME280;1180;51.438;6.978;2022-10-16T01:03:02;99813.06;;;17.47;96.24
2339;BME280;1180;51.438;6.978;2022-10-16T01:05:56;99812.47;;;17.54;96.07
2339;BME280;1180;51.438;6.978;2022-10-16T01:08:36;99814.69;;;17.49;95.65
2339;BME280;1180;51.438;6.978;2022-10-16T01:11:22;99820.84;;;17.47;95.64
2339;BME280;1180;51.438;6.978;2022-10-16T01:13:55;99824.94;;;17.50;95.41
2339;BME280;1180;51.438;6.978;2022-10-16T01:16:34;99821.53;;;17.50;95.73
2339;BME280;1180;51.438;6.978;2022-10-16T01:19:14;99826.22;;;17.46;95.46
2339;BME280;1180;51.438;6.978;2022-10-16T01:21:43;99831.53;;;17.44;95.51
2339;BME280;1180;51.438;6.978;2022-10-16T01:29:48;99830.78;;;17.34;95.60
2339;BME280;1180;51.438;6.978;2022-10-16T01:32:30;99816.69;;;17.37;95.80
2339;BME280;1180;51.438;6.978;2022-10-16T01:35:02;99823.63;;;17.46;95.09
2339;BME280;1180;51.438;6.978;2022-10-16T01:37:36;99828.69;;;17.38;94.98
2339;BME280;1180;51.438;6.978;2022-10-16T01:40:07;99830.41;;;17.29;95.12
2339;BME280;1180;51.438;6.978;2022-10-16T01:43:00;99824.75;;;17.33;95.13
2339;BME280;1180;51.438;6.978;2022-10-16T01:45:23;99824.34;;;17.38;94.97
2339;BME280;1180;51.438;6.978;2022-10-16T01:47:50;99817.81;;;17.34;94.91
2339;BME280;1180;51.438;6.978;2022-10-16T01:50:18;99817.31;;;17.21;95.37
2339;BME280;1180;51.438;6.978;2022-10-16T01:52:48;99821.00;;;17.28;95.43
2339;BME280;1180;51.438;6.978;2022-10-16T01:55:18;99828.19;;;17.34;95.33
2339;BME280;1180;51.438;6.978;2022-10-16T01:57:47;99823.38;;;17.39;95.11
2339;BME280;1180;51.438;6.978;2022-10-16T02:00:16;99820.66;;;17.41;94.55
2339;BME280;1180;51.438;6.978;2022-10-16T02:02:45;99823.50;;;17.38;94.77
2339;BME280;1180;51.438;6.978;2022-10-16T02:05:16;99823.25;;;17.41;94.93
2339;BME280;1180;51.438;6.978;2022-10-16T02:07:43;99830.91;;;17.32;95.11
2339;BME280;1180;51.438;6.978;2022-10-16T02:10:09;99844.41;;;17.36;95.31
2339;BME280;1180;51.438;6.978;2022-10-16T02:12:38;99839.91;;;17.38;95.22
2339;BME280;1180;51.438;6.978;2022-10-16T02:15:05;99845.22;;;17.37;95.03
2339;BME280;1180;51.438;6.978;2022-10-16T02:17:31;99830.63;;;17.36;95.65
2339;BME280;1180;51.438;6.978;2022-10-16T02:19:58;99836.94;;;17.33;95.46
2339;BME280;1180;51.438;6.978;2022-10-16T02:22:28;99831.75;;;17.33;94.92
2339;BME280;1180;51.438;6.978;2022-10-16T02:25:20;99824.38;;;17.28;94.92
2339;BME280;1180;51.438;6.978;2022-10-16T02:30:40;99842.13;;;17.33;95.00
2339;BME280;1180;51.438;6.978;2022-10-16T02:33:09;99850.84;;;17.32;95.12
2339;BME280;1180;51.438;6.978;2022-10-16T02:35:37;99845.13;;;17.28;95.07
2339;BME280;1180;51.438;6.978;2022-10-16T02:38:03;99845.66;;;17.32;95.19
2339;BME280;1180;51.438;6.978;2022-10-16T02:40:30;99847.44;;;17.31;95.53
2339;BME280;1180;51.438;6.978;2022-10-16T02:42:55;99843.06;;;17.32;95.48
2339;BME280;1180;51.438;6.978;2022-10-16T02:45:22;99839.53;;;17.33;95.57
2339;BME280;1180;51.438;6.978;2022-10-16T02:47:48;99830.41;;;17.29;95.74
2339;BME280;1180;51.438;6.978;2022-10-16T02:50:13;99830.91;;;17.32;95.51
2339;BME280;1180;51.438;6.978;2022-10-16T02:52:39;99841.44;;;17.31;95.54
2339;BME280;1180;51.438;6.978;2022-10-16T02:55:04;99838.31;;;17.27;94.76
2339;BME280;1180;51.438;6.978;2022-10-16T02:57:30;99838.50;;;17.44;93.42
2339;BME280;1180;51.438;6.978;2022-10-16T02:59:56;99826.94;;;17.38;93.28
2339;BME280;1180;51.438;6.978;2022-10-16T03:02:21;99837.88;;;17.32;93.52
2339;BME280;1180;51.438;6.978;2022-10-16T03:04:46;99829.53;;;17.38;92.94
2339;BME280;1180;51.438;6.978;2022-10-16T03:07:12;99835.00;;;17.35;92.21
2339;BME280;1180;51.438;6.978;2022-10-16T03:09:37;99842.31;;;17.40;92.47
2339;BME280;1180;51.438;6.978;2022-10-16T03:12:03;99846.13;;;17.45;91.63
2339;BME280;1180;51.438;6.978;2022-10-16T03:14:28;99847.91;;;17.45;91.77
2339;BME280;1180;51.438;6.978;2022-10-16T03:16:54;99839.59;;;17.41;91.99
2339;BME280;1180;51.438;6.978;2022-10-16T03:19:19;99842.13;;;17.51;91.25
2339;BME280;1180;51.438;6.978;2022-10-16T03:21:45;99839.59;;;17.41;90.76
2339;BME280;1180;51.438;6.978;2022-10-16T03:24:10;99845.31;;;17.45;91.16
2339;BME280;1180;51.438;6.978;2022-10-16T03:26:36;99839.19;;;17.46;91.40
2339;BME280;1180;51.438;6.978;2022-10-16T03:29:02;99843.41;;;17.47;91.20
2339;BME280;1180;51.438;6.978;2022-10-16T03:31:28;99843.16;;;17.40;91.00
2339;BME280;1180;51.438;6.978;2022-10-16T03:33:54;99835.50;;;17.39;91.14
2339;BME280;1180;51.438;6.978;2022-10-16T03:36:19;99837.69;;;17.43;90.72
2339;BME280;1180;51.438;6.978;2022-10-16T03:38:44;99842.31;;;17.40;91.00
2339;BME280;1180;51.438;6.978;2022-10-16T03:41:10;99842.19;;;17.41;90.88
2339;BME280;1180;51.438;6.978;2022-10-16T03:43:35;99852.56;;;17.41;90.74
2339;BME280;1180;51.438;6.978;2022-10-16T03:46:01;99849.19;;;17.41;90.53
2339;BME280;1180;51.438;6.978;2022-10-16T03:48:26;99848.72;;;17.45;90.14
2339;BME280;1180;51.438;6.978;2022-10-16T03:50:51;99859.25;;;17.44;89.69
2339;BME280;1180;51.438;6.978;2022-10-16T03:53:18;99856.25;;;17.39;89.92
2339;BME280;1180;51.438;6.978;2022-10-16T03:55:44;99855.16;;;17.41;89.86
2339;BME280;1180;51.438;6.978;2022-10-16T03:58:10;99851.78;;;17.41;90.20
2339;BME280;1180;51.438;6.978;2022-10-16T04:00:36;99848.47;;;17.39;90.23
2339;BME280;1180;51.438;6.978;2022-10-16T04:03:04;99858.19;;;17.37;90.14
2339;BME280;1180;51.438;6.978;2022-10-16T04:05:29;99854.78;;;17.36;89.70
2339;BME280;1180;51.438;6.978;2022-10-16T04:07:55;99860.94;;;17.35;90.00
2339;BME280;1180;51.438;6.978;2022-10-16T04:10:20;99862.19;;;17.31;90.08
2339;BME280;1180;51.438;6.978;2022-10-16T04:12:45;99861.53;;;17.29;90.43
2339;BME280;1180;51.438;6.978;2022-10-16T04:15:11;99872.56;;;17.31;90.67
2339;BME280;1180;51.438;6.978;2022-10-16T04:17:36;99871.22;;;17.27;90.55
2339;BME280;1180;51.438;6.978;2022-10-16T04:20:02;99875.50;;;17.18;90.88
2339;BME280;1180;51.438;6.978;2022-10-16T04:22:28;99870.81;;;17.22;90.87
2339;BME280;1180;51.438;6.978;2022-10-16T04:24:53;99871.69;;;17.12;90.74
2339;BME280;1180;51.438;6.978;2022-10-16T04:27:19;99881.75;;;17.15;91.02
2339;BME280;1180;51.438;6.978;2022-10-16T04:29:44;99871.69;;;17.12;91.33
2339;BME280;1180;51.438;6.978;2022-10-16T04:32:09;99887.25;;;17.12;91.30
2339;BME280;1180;51.438;6.978;2022-10-16T04:34:35;99879.91;;;17.08;91.13
2339;BME280;1180;51.438;6.978;2022-10-16T04:37:01;99888.06;;;17.13;91.04
2339;BME280;1180;51.438;6.978;2022-10-16T04:39:26;99893.63;;;17.18;90.85
2339;BME280;1180;51.438;6.978;2022-10-16T04:41:52;99896.34;;;17.16;91.13
2339;BME280;1180;51.438;6.978;2022-10-16T04:44:17;99896.34;;;17.16;90.79
2339;BME280;1180;51.438;6.978;2022-10-16T04:46:42;99894.72;;;17.15;91.16
2339;BME280;1180;51.438;6.978;2022-10-16T04:49:09;99898.16;;;17.16;90.69
2339;BME280;1180;51.438;6.978;2022-10-16T04:51:34;99894.22;;;17.12;90.87
2339;BME280;1180;51.438;6.978;2022-10-16T04:54:00;99895.19;;;17.11;90.85
2339;BME280;1180;51.438;6.978;2022-10-16T04:56:25;99901.44;;;17.08;91.24
2339;BME280;1180;51.438;6.978;2022-10-16T04:58:51;99900.38;;;17.01;91.55
2339;BME280;1180;51.438;6.978;2022-10-16T05:01:16;99915.09;;;17.00;91.85
2339;BME280;1180;51.438;6.978;2022-10-16T05:03:42;99916.47;;;17.04;91.55
2339;BME280;1180;51.438;6.978;2022-10-16T05:06:07;99928.47;;;17.06;91.51
2339;BME280;1180;51.438;6.978;2022-10-16T05:08:32;99924.38;;;17.03;91.38
2339;BME280;1180;51.438;6.978;2022-10-16T05:10:58;99934.34;;;17.08;91.38
2339;BME280;1180;51.438;6.978;2022-10-16T05:13:23;99927.28;;;17.00;91.35
2339;BME280;1180;51.438;6.978;2022-10-16T05:15:49;99935.84;;;17.00;92.25
2339;BME280;1180;51.438;6.978;2022-10-16T05:18:15;99937.06;;;16.96;91.95
2339;BME280;1180;51.438;6.978;2022-10-16T05:20:41;99934.38;;;16.98;92.43
2339;BME280;1180;51.438;6.978;2022-10-16T05:23:07;99930.53;;;17.02;92.13
2339;BME280;1180;51.438;6.978;2022-10-16T05:25:32;99943.22;;;17.05;91.47
2339;BME280;1180;51.438;6.978;2022-10-16T05:27:58;99941.28;;;17.07;91.50
2339;BME280;1180;51.438;6.978;2022-10-16T05:30:23;99940.63;;;17.05;92.11
2339;BME280;1180;51.438;6.978;2022-10-16T05:32:49;99942.94;;;17.08;91.91
2339;BME280;1180;51.438;6.978;2022-10-16T05:35:16;99936.41;;;17.04;91.41
2339;BME280;1180;51.438;6.978;2022-10-16T05:37:42;99931.50;;;17.01;92.15
2339;BME280;1180;51.438;6.978;2022-10-16T05:40:08;99941.56;;;17.04;92.05
2339;BME280;1180;51.438;6.978;2022-10-16T05:42:33;99940.47;;;17.07;91.87
2339;BME280;1180;51.438;6.978;2022-10-16T05:44:59;99942.38;;;17.04;92.05
2339;BME280;1180;51.438;6.978;2022-10-16T05:47:24;99941.56;;;16.94;92.45
2339;BME280;1180;51.438;6.978;2022-10-16T05:49:50;99949.22;;;16.96;92.08
2339;BME280;1180;51.438;6.978;2022-10-16T05:52:15;99949.50;;;16.93;92.44
2339;BME280;1180;51.438;6.978;2022-10-16T05:54:40;99954.69;;;16.93;92.72
2339;BME280;1180;51.438;6.978;2022-10-16T05:57:06;99966.81;;;17.02;92.03
2339;BME280;1180;51.438;6.978;2022-10-16T05:59:32;99969.94;;;16.96;92.50
2339;BME280;1180;51.438;6.978;2022-10-16T06:01:57;99978.16;;;17.01;92.60
2339;BME280;1180;51.438;6.978;2022-10-16T06:04:22;99980.75;;;17.01;92.18
2339;BME280;1180;51.438;6.978;2022-10-16T06:06:48;99987.00;;;16.98;92.32
2339;BME280;1180;51.438;6.978;2022-10-16T06:09:13;99985.25;;;16.99;92.31
2339;BME280;1180;51.438;6.978;2022-10-16T06:11:39;99989.06;;;16.95;92.55
2339;BME280;1180;51.438;6.978;2022-10-16T06:14:04;99995.19;;;17.03;91.51
2339;BME280;1180;51.438;6.978;2022-10-16T06:16:33;100001.06;;;16.96;92.35
2339;BME280;1180;51.438;6.978;2022-10-16T06:18:59;99991.66;;;16.95;91.98
2339;BME280;1180;51.438;6.978;2022-10-16T06:21:26;99998.88;;;17.01;92.09
2339;BME280;1180;51.438;6.978;2022-10-16T06:23:52;100002.16;;;17.03;92.14
2339;BME280;1180;51.438;6.978;2022-10-16T06:26:20;100006.00;;;16.99;92.44
2339;BME280;1180;51.438;6.978;2022-10-16T06:28:46;99998.47;;;16.96;92.45
2339;BME280;1180;51.438;6.978;2022-10-16T06:31:12;100000.66;;;17.00;92.40
2339;BME280;1180;51.438;6.978;2022-10-16T06:33:38;99999.97;;;16.98;92.73
2339;BME280;1180;51.438;6.978;2022-10-16T06:36:12;100007.47;;;17.01;92.59
2339;BME280;1180;51.438;6.978;2022-10-16T06:38:38;100010.88;;;17.12;92.44
2339;BME280;1180;51.438;6.978;2022-10-16T06:41:05;100012.66;;;17.11;92.03
2339;BME280;1180;51.438;6.978;2022-10-16T06:43:31;100014.44;;;17.11;92.34
2339;BME280;1180;51.438;6.978;2022-10-16T06:46:04;100017.81;;;17.11;92.71
2339;BME280;1180;51.438;6.978;2022-10-16T06:48:30;100020.69;;;17.08;92.35
2339;BME280;1180;51.438;6.978;2022-10-16T06:51:01;100032.81;;;17.17;92.29
2339;BME280;1180;51.438;6.978;2022-10-16T06:53:28;100045.78;;;17.27;91.71
2339;BME280;1180;51.438;6.978;2022-10-16T06:55:54;100048.94;;;17.21;91.55
2339;BME280;1180;51.438;6.978;2022-10-16T06:58:19;100056.72;;;17.11;91.84
2339;BME280;1180;51.438;6.978;2022-10-16T07:00:45;100060.25;;;17.20;92.18
2339;BME280;1180;51.438;6.978;2022-10-16T07:03:11;100062.03;;;17.20;91.75
2339;BME280;1180;51.438;6.978;2022-10-16T07:05:43;100067.22;;;17.20;92.21
2339;BME280;1180;51.438;6.978;2022-10-16T07:08:08;100072.44;;;17.10;92.98
2339;BME280;1180;51.438;6.978;2022-10-16T07:10:34;100083.47;;;17.12;92.80
2339;BME280;1180;51.438;6.978;2022-10-16T07:13:01;100087.16;;;17.09;93.19
2339;BME280;1180;51.438;6.978;2022-10-16T07:15:26;100087.72;;;17.13;92.94
2339;BME280;1180;51.438;6.978;2022-10-16T07:17:52;100094.66;;;17.12;92.98
2339;BME280;1180;51.438;6.978;2022-10-16T07:20:18;100092.75;;;17.14;92.91
2339;BME280;1180;51.438;6.978;2022-10-16T07:22:43;100104.06;;;17.13;93.10
2339;BME280;1180;51.438;6.978;2022-10-16T07:25:09;100112.13;;;17.20;92.98
2339;BME280;1180;51.438;6.978;2022-10-16T07:27:35;100110.09;;;17.14;92.92
2339;BME280;1180;51.438;6.978;2022-10-16T07:30:00;100117.19;;;17.02;94.23
2339;BME280;1180;51.438;6.978;2022-10-16T07:32:26;100112.94;;;17.01;93.58
2339;BME280;1180;51.438;6.978;2022-10-16T07:34:54;100118.81;;;17.13;93.64
2339;BME280;1180;51.438;6.978;2022-10-16T07:37:21;100112.13;;;17.20;93.45
2339;BME280;1180;51.438;6.978;2022-10-16T07:39:46;100127.28;;;17.25;92.67
2339;BME280;1180;51.438;6.978;2022-10-16T07:42:12;100130.66;;;17.15;93.45
2339;BME280;1180;51.438;6.978;2022-10-16T07:44:37;100130.56;;;17.27;93.41
2339;BME280;1180;51.438;6.978;2022-10-16T07:47:02;100132.59;;;17.33;92.81
2339;BME280;1180;51.438;6.978;2022-10-16T07:49:28;100142.81;;;17.35;92.91
2339;BME280;1180;51.438;6.978;2022-10-16T07:51:53;100137.09;;;17.41;92.79
2339;BME280;1180;51.438;6.978;2022-10-16T07:54:18;100146.63;;;17.40;93.06
2339;BME280;1180;51.438;6.978;2022-10-16T07:56:44;100146.13;;;17.27;93.78
2339;BME280;1180;51.438;6.978;2022-10-16T07:59:09;100141.88;;;17.26;94.11
2339;BME280;1180;51.438;6.978;2022-10-16T08:01:34;100149.63;;;17.36;93.90
2339;BME280;1180;51.438;6.978;2022-10-16T08:04:00;100152.91;;;17.47;93.03
2339;BME280;1180;51.438;6.978;2022-10-16T08:06:25;100155.91;;;17.53;92.69
2339;BME280;1180;51.438;6.978;2022-10-16T08:08:51;100165.47;;;17.62;92.74
2339;BME280;1180;51.438;6.978;2022-10-16T08:11:16;100171.88;;;17.58;92.41
2339;BME280;1180;51.438;6.978;2022-10-16T08:13:42;100168.34;;;17.59;92.17
2339;BME280;1180;51.438;6.978;2022-10-16T08:16:07;100180.34;;;17.60;92.12
2339;BME280;1180;51.438;6.978;2022-10-16T08:18:36;100177.19;;;17.56;92.17
2339;BME280;1180;51.438;6.978;2022-10-16T08:21:03;100173.78;;;17.56;92.42
2339;BME280;1180;51.438;6.978;2022-10-16T08:23:29;100182.91;;;17.70;91.75
2339;BME280;1180;51.438;6.978;2022-10-16T08:25:56;100187.13;;;17.81;91.77
2339;BME280;1180;51.438;6.978;2022-10-16T08:28:22;100193.16;;;17.81;90.83
2339;BME280;1180;51.438;6.978;2022-10-16T08:30:48;100203.53;;;17.81;91.06
2339;BME280;1180;51.438;6.978;2022-10-16T08:33:14;100193.84;;;17.73;90.01
2339;BME280;1180;51.438;6.978;2022-10-16T08:35:39;100201.19;;;17.88;90.17
2339;BME280;1180;51.438;6.978;2022-10-16T08:38:06;100199.13;;;17.92;89.18
2339;BME280;1180;51.438;6.978;2022-10-16T08:40:33;100198.34;;;17.91;89.50
2339;BME280;1180;51.438;6.978;2022-10-16T08:43:21;100214.97;;;17.98;87.52
2339;BME280;1180;51.438;6.978;2022-10-16T08:51:07;100236.56;;;17.99;87.41
2339;BME280;1180;51.438;6.978;2022-10-16T08:53:41;100231.47;;;18.17;87.40
2339;BME280;1180;51.438;6.978;2022-10-16T08:56:08;100235.19;;;18.24;87.38
2339;BME280;1180;51.438;6.978;2022-10-16T08:58:33;100247.69;;;18.39;86.33
2339;BME280;1180;51.438;6.978;2022-10-16T09:01:01;100257.50;;;18.45;85.96
2339;BME280;1180;51.438;6.978;2022-10-16T09:20:03;100269.16;;;18.41;84.30
2339;BME280;1180;51.438;6.978;2022-10-16T09:22:35;100272.59;;;18.31;85.32
2339;BME280;1180;51.438;6.978;2022-10-16T09:25:10;100278.59;;;18.32;84.55
2339;BME280;1180;51.438;6.978;2022-10-16T09:27:36;100273.38;;;18.42;85.05
2339;BME280;1180;51.438;6.978;2022-10-16T09:30:14;100276.53;;;18.45;84.04
2339;BME280;1180;51.438;6.978;2022-10-16T09:32:41;100272.97;;;18.46;84.75
2339;BME280;1180;51.438;6.978;2022-10-16T09:35:14;100278.41;;;18.53;84.68
2339;BME280;1180;51.438;6.978;2022-10-16T09:37:42;100282.13;;;18.51;84.15
2339;BME280;1180;51.438;6.978;2022-10-16T09:40:25;100282.75;;;18.62;83.85
2339;BME280;1180;51.438;6.978;2022-10-16T09:42:57;100279.91;;;18.56;83.81
2339;BME280;1180;51.438;6.978;2022-10-16T09:45:26;100284.91;;;18.67;83.82
2339;BME280;1180;51.438;6.978;2022-10-16T09:47:51;100279.34;;;18.62;83.58
2339;BME280;1180;51.438;6.978;2022-10-16T09:50:24;100270.41;;;18.74;83.49
2339;BME280;1180;51.438;6.978;2022-10-16T09:53:02;100276.06;;;18.88;83.20
2339;BME280;1180;51.438;6.978;2022-10-16T09:55:27;100281.38;;;18.96;82.95
2339;BME280;1180;51.438;6.978;2022-10-16T09:57:54;100284.38;;;19.01;83.10
2339;BME280;1180;51.438;6.978;2022-10-16T10:00:20;100283.91;;;19.16;81.48
2339;BME280;1180;51.438;6.978;2022-10-16T10:02:48;100281.88;;;19.10;81.24
2339;BME280;1180;51.438;6.978;2022-10-16T10:05:28;100286.41;;;19.08;80.91
2339;BME280;1180;51.438;6.978;2022-10-16T10:07:56;100287.09;;;19.10;78.82
2339;BME280;1180;51.438;6.978;2022-10-16T10:10:25;100285.53;;;19.17;80.43
2339;BME280;1180;51.438;6.978;2022-10-16T10:12:52;100287.66;;;19.22;79.91
2339;BME280;1180;51.438;6.978;2022-10-16T10:15:18;100283.69;;;19.27;79.98
2339;BME280;1180;51.438;6.978;2022-10-16T10:17:57;100289.63;;;19.38;81.25
2339;BME280;1180;51.438;6.978;2022-10-16T10:22:52;100282.66;;;19.56;79.73
2339;BME280;1180;51.438;6.978;2022-10-16T10:38:59;100301.84;;;19.91;76.87
2339;BME280;1180;51.438;6.978;2022-10-16T10:41:35;100300.63;;;20.04;75.71
2339;BME280;1180;51.438;6.978;2022-10-16T10:47:00;100302.25;;;20.05;75.65
2339;BME280;1180;51.438;6.978;2022-10-16T10:52:34;100304.28;;;20.11;75.19
2339;BME280;1180;51.438;6.978;2022-10-16T10:55:23;100296.00;;;20.16;74.41
2339;BME280;1180;51.438;6.978;2022-10-16T11:06:26;100293.84;;;20.38;73.75
2339;BME280;1180;51.438;6.978;2022-10-16T11:09:12;100296.50;;;20.46;73.35
2339;BME280;1180;51.438;6.978;2022-10-16T11:11:48;100302.06;;;20.51;72.11
2339;BME280;1180;51.438;6.978;2022-10-16T11:14:26;100298.97;;;20.47;71.46
2339;BME280;1180;51.438;6.978;2022-10-16T11:17:25;100303.41;;;20.55;71.64
2339;BME280;1180;51.438;6.978;2022-10-16T11:19:54;100308.91;;;20.52;70.95
2339;BME280;1180;51.438;6.978;2022-10-16T11:22:34;100309.94;;;20.59;69.36
2339;BME280;1180;51.438;6.978;2022-10-16T11:28:24;100302.78;;;20.61;70.18
2339;BME280;1180;51.438;6.978;2022-10-16T11:33:37;100311.25;;;20.63;71.17
2339;BME280;1180;51.438;6.978;2022-10-16T11:36:23;100316.28;;;20.57;71.30
2339;BME280;1180;51.438;6.978;2022-10-16T11:41:50;100313.06;;;20.71;69.61
2339;BME280;1180;51.438;6.978;2022-10-16T11:47:07;100309.13;;;20.67;71.09
2339;BME280;1180;51.438;6.978;2022-10-16T11:49:36;100307.13;;;20.87;71.49
2339;BME280;1180;51.438;6.978;2022-10-16T11:55:04;100312.34;;;20.87;68.66
2339;BME280;1180;51.438;6.978;2022-10-16T11:57:34;100318.59;;;20.95;69.25
2339;BME280;1180;51.438;6.978;2022-10-16T12:00:14;100324.97;;;21.00;69.91
2339;BME280;1180;51.438;6.978;2022-10-16T12:10:31;100337.69;;;21.03;67.99
2339;BME280;1180;51.438;6.978;2022-10-16T12:18:44;100326.00;;;21.16;67.48
2339;BME280;1180;51.438;6.978;2022-10-16T12:21:11;100324.91;;;21.35;65.60
2339;BME280;1180;51.438;6.978;2022-10-16T12:23:50;100324.94;;;21.60;64.18
2339;BME280;1180;51.438;6.978;2022-10-16T12:26:34;100325.56;;;21.45;65.96
2339;BME280;1180;51.438;6.978;2022-10-16T12:29:34;100333.06;;;21.32;67.55
2339;BME280;1180;51.438;6.978;2022-10-16T12:32:04;100330.28;;;21.33;68.71
2339;BME280;1180;51.438;6.978;2022-10-16T12:34:42;100324.56;;;21.30;69.60
2339;BME280;1180;51.438;6.978;2022-10-16T12:37:20;100330.13;;;21.35;67.52
2339;BME280;1180;51.438;6.978;2022-10-16T12:39:48;100327.50;;;21.35;68.59
2339;BME280;1180;51.438;6.978;2022-10-16T12:44:52;100331.47;;;21.56;68.97
2339;BME280;1180;51.438;6.978;2022-10-16T12:47:47;100340.00;;;21.66;67.41
2339;BME280;1180;51.438;6.978;2022-10-16T12:53:00;100342.25;;;21.61;67.09
2339;BME280;1180;51.438;6.978;2022-10-16T12:55:26;100343.22;;;21.60;67.89
2339;BME280;1180;51.438;6.978;2022-10-16T13:01:29;100342.41;;;21.59;66.64
2339;BME280;1180;51.438;6.978;2022-10-16T13:04:13;100335.94;;;21.72;71.24
2339;BME280;1180;51.438;6.978;2022-10-16T13:06:55;100345.25;;;21.91;71.42
2339;BME280;1180;51.438;6.978;2022-10-16T13:09:43;100344.25;;;22.00;66.77
2339;BME280;1180;51.438;6.978;2022-10-16T13:15:47;100340.00;;;21.99;66.53
2339;BME280;1180;51.438;6.978;2022-10-16T13:25:50;100343.91;;;22.03;63.85
2339;BME280;1180;51.438;6.978;2022-10-16T13:28:26;100340.16;;;21.89;64.00
2339;BME280;1180;51.438;6.978;2022-10-16T13:30:56;100344.09;;;21.85;65.93
2339;BME280;1180;51.438;6.978;2022-10-16T13:33:37;100357.94;;;21.77;65.57
2339;BME280;1180;51.438;6.978;2022-10-16T13:36:04;100367.28;;;21.72;66.32
2339;BME280;1180;51.438;6.978;2022-10-16T13:38:32;100367.28;;;21.72;65.85
2339;BME280;1180;51.438;6.978;2022-10-16T13:41:11;100366.94;;;21.75;65.43
2339;BME280;1180;51.438;6.978;2022-10-16T13:43:46;100362.84;;;21.81;66.31
2339;BME280;1180;51.438;6.978;2022-10-16T13:46:19;100361.72;;;21.83;66.52
2339;BME280;1180;51.438;6.978;2022-10-16T13:48:59;100357.47;;;21.82;67.49
2339;BME280;1180;51.438;6.978;2022-10-16T13:51:25;100349.50;;;21.92;66.93
2339;BME280;1180;51.438;6.978;2022-10-16T13:53:51;100351.75;;;21.87;65.53
2339;BME280;1180;51.438;6.978;2022-10-16T13:56:20;100358.63;;;21.88;65.12
2339;BME280;1180;51.438;6.978;2022-10-16T13:58:57;100349.81;;;21.89;65.57
2339;BME280;1180;51.438;6.978;2022-10-16T14:01:25;100347.34;;;21.96;66.23
2339;BME280;1180;51.438;6.978;2022-10-16T14:03:52;100343.44;;;21.91;64.74
2339;BME280;1180;51.438;6.978;2022-10-16T14:06:21;100355.84;;;21.98;64.44
2339;BME280;1180;51.438;6.978;2022-10-16T14:09:00;100357.97;;;22.02;65.24
2339;BME280;1180;51.438;6.978;2022-10-16T14:11:26;100355.34;;;22.02;66.22
2339;BME280;1180;51.438;6.978;2022-10-16T14:13:53;100356.97;;;22.12;66.34
2339;BME280;1180;51.438;6.978;2022-10-16T14:16:30;100369.56;;;22.16;65.76
2339;BME280;1180;51.438;6.978;2022-10-16T14:18:57;100368.41;;;22.19;65.00
2339;BME280;1180;51.438;6.978;2022-10-16T14:21:25;100377.88;;;22.12;64.19
2339;BME280;1180;51.438;6.978;2022-10-16T14:23:51;100385.88;;;22.02;63.58
2339;BME280;1180;51.438;6.978;2022-10-16T14:26:19;100375.44;;;22.02;64.08
2339;BME280;1180;51.438;6.978;2022-10-16T14:28:47;100384.09;;;22.02;64.36
2339;BME280;1180;51.438;6.978;2022-10-16T14:31:29;100376.25;;;21.94;64.15
2339;BME280;1180;51.438;6.978;2022-10-16T14:33:55;100367.75;;;21.84;65.08
2339;BME280;1180;51.438;6.978;2022-10-16T14:36:22;100344.88;;;21.77;66.20
2339;BME280;1180;51.438;6.978;2022-10-16T14:39:05;100324.97;;;21.68;65.51
2339;BME280;1180;51.438;6.978;2022-10-16T14:41:35;100345.22;;;21.74;65.15
2339;BME280;1180;51.438;6.978;2022-10-16T14:44:06;100362.53;;;21.84;65.54
2339;BME280;1180;51.438;6.978;2022-10-16T14:46:34;100367.28;;;21.88;66.88
2339;BME280;1180;51.438;6.978;2022-10-16T14:49:04;100367.91;;;21.90;67.79
2339;BME280;1180;51.438;6.978;2022-10-16T14:51:39;100362.88;;;21.89;68.36
2339;BME280;1180;51.438;6.978;2022-10-16T14:54:09;100364.97;;;21.93;69.39
2339;BME280;1180;51.438;6.978;2022-10-16T14:56:55;100357.16;;;21.93;69.63
2339;BME280;1180;51.438;6.978;2022-10-16T14:59:28;100358.78;;;21.86;69.91
2339;BME280;1180;51.438;6.978;2022-10-16T15:01:55;100364.47;;;21.82;70.63
2339;BME280;1180;51.438;6.978;2022-10-16T15:04:20;100363.81;;;21.79;71.21
2339;BME280;1180;51.438;6.978;2022-10-16T15:06:46;100359.44;;;21.72;71.60
2339;BME280;1180;51.438;6.978;2022-10-16T15:09:11;100373.94;;;21.66;72.23
2339;BME280;1180;51.438;6.978;2022-10-16T15:11:37;100373.28;;;21.64;72.43
2339;BME280;1180;51.438;6.978;2022-10-16T15:14:03;100366.72;;;21.60;71.97
2339;BME280;1180;51.438;6.978;2022-10-16T15:16:29;100362.31;;;21.52;71.79